Time,TemperatureF,DewpointF,PressureIn,WindDirection,WindDirectionDegrees,WindSpeedMPH,WindSpeedGustMPH,Humidity,HourlyPrecipIn,Conditions,Clouds,dailyrainin,SoftwareType,DateUTC
2013-08-28 00:00:00,78.6,67.6,29.95,WSW,243,1.0,5.0,69,0.00,CLR,SKC,0.00,WeatherDisplay:10.37,2013-08-28 05:00:00,
2013-08-28 00:05:00,78.4,67.8,29.95,WSW,255,0.0,2.0,70,0.00,CLR,SKC,0.00,WeatherDisplay:10.37,2013-08-28 05:05:00,
2013-08-28 00:10:00,78.2,67.6,29.95,South,181,1.0,7.0,70,0.00,CLR,SKC,0.00,WeatherDisplay:10.37,2013-08-28 05:10:00,
2013-08-28 00:15:00,78.1,67.5,29.95,SSW,192,2.0,8.0,70,0.00,CLR,SKC,0.00,WeatherDisplay:10.37,2013-08-28 05:15:00,
2013-08-28 00:20:00,78.0,67.4,29.95,SSW,199,1.0,5.0,70,0.00,CLR,SKC,0.00,WeatherDisplay:10.37,2013-08-28 05:20:00,
2013-08-28 00:25:00,77.8,67.7,29.95,SSW,196,2.0,6.0,71,0.00,CLR,SKC,0.00,WeatherDisplay:10.37,2013-08-28 05:25:00,
2013-08-28 00:30:00,77.8,67.7,29.95,SSW,200,2.0,10.0,71,0.00,CLR,SKC,0.00,WeatherDisplay:10.37,2013-08-28 05:30:00,
2013-08-28 00:35:00,77.7,67.6,29.95,SSW,198,2.0,7.0,71,0.00,CLR,SKC,0.00,WeatherDisplay:10.37,2013-08-28 05:35:00,
2013-08-28 00:40:00,77.7,67.5,29.95,South,184,5.0,12.0,71,0.00,CLR,SKC,0.00,WeatherDisplay:10.37,2013-08-28 05:40:00,
2013-08-28 00:45:00,77.6,67.5,29.95,SSW,199,1.0,5.0,71,0.00,CLR,SKC,0.00,WeatherDisplay:10.37,2013-08-28 05:45:00,
2013-08-28 00:50:00,77.5,67.4,29.95,SSW,199,1.0,3.0,71,0.00,CLR,SKC,0.00,WeatherDisplay:10.37,2013-08-28 05:50:00,
2013-08-28 00:55:00,77.3,67.2,29.95,South,172,0.0,5.0,71,0.00,CLR,SKC,0.00,WeatherDisplay:10.37,2013-08-28 05:55:00,
2013-08-28 01:05:00,77.1,67.4,29.95,SSW,213,3.0,8.0,72,0.00,CLR,SKC,0.00,WeatherDisplay:10.37,2013-08-28 06:05:00,
2013-08-28 01:10:00,77.1,67.3,29.95,SSW,207,2.0,8.0,72,0.00,CLR,SKC,0.00,WeatherDisplay:10.37,2013-08-28 06:10:00,
2013-08-28 01:15:00,77.0,67.3,29.95,South,189,1.0,8.0,72,0.00,CLR,SKC,0.00,WeatherDisplay:10.37,2013-08-28 06:15:00,
2013-08-28 01:20:00,76.9,67.2,29.95,SSW,205,2.0,7.0,72,0.00,CLR,SKC,0.00,WeatherDisplay:10.37,2013-08-28 06:20:00,
2013-08-28 01:25:00,76.9,67.2,29.95,SSW,208,1.0,7.0,72,0.00,CLR,SKC,0.00,WeatherDisplay:10.37,2013-08-28 06:25:00,
2013-08-28 01:30:00,76.8,67.1,29.95,SSW,203,0.0,7.0,72,0.00,CLR,SKC,0.00,WeatherDisplay:10.37,2013-08-28 06:30:00,
2013-08-28 01:35:00,76.6,67.3,29.95,SW,218,2.0,7.0,73,0.00,CLR,SKC,0.00,WeatherDisplay:10.37,2013-08-28 06:35:00,
2013-08-28 01:40:00,76.5,67.2,29.95,SSW,213,0.0,3.0,73,0.00,CLR,SKC,0.00,WeatherDisplay:10.37,2013-08-28 06:40:00,
2013-08-28 01:45:00,76.3,67.0,29.95,South,186,1.0,3.0,73,0.00,CLR,SKC,0.00,WeatherDisplay:10.37,2013-08-28 06:45:00,
2013-08-28 01:50:00,76.2,67.3,29.95,South,170,0.0,5.0,74,0.00,CLR,SKC,0.00,WeatherDisplay:10.37,2013-08-28 06:50:00,
2013-08-28 01:55:00,76.0,67.1,29.95,SSW,197,0.0,3.0,74,0.00,CLR,SKC,0.00,WeatherDisplay:10.37,2013-08-28 06:55:00,
2013-08-28 02:00:00,75.9,67.4,29.95,SW,215,1.0,6.0,75,0.00,CLR,SKC,0.00,WeatherDisplay:10.37,2013-08-28 07:00:00,
2013-08-28 02:05:00,75.8,67.3,29.94,SSW,192,2.0,3.0,75,0.00,CLR,SKC,0.00,WeatherDisplay:10.37,2013-08-28 07:05:00,
2013-08-28 02:10:00,75.7,67.2,29.95,SSW,201,3.0,8.0,75,0.00,CLR,SKC,0.00,WeatherDisplay:10.37,2013-08-28 07:10:00,
2013-08-28 02:15:00,75.6,67.5,29.95,SSW,207,1.0,8.0,76,0.00,CLR,SKC,0.00,WeatherDisplay:10.37,2013-08-28 07:15:00,
2013-08-28 02:20:00,75.4,67.3,29.95,SSW,208,1.0,6.0,76,0.00,CLR,SKC,0.00,WeatherDisplay:10.37,2013-08-28 07:20:00,
2013-08-28 02:25:00,75.2,67.5,29.95,SSW,211,2.0,5.0,77,0.00,CLR,SKC,0.00,WeatherDisplay:10.37,2013-08-28 07:25:00,
2013-08-28 02:30:00,75.0,67.3,29.94,South,177,0.0,2.0,77,0.00,CLR,SKC,0.00,WeatherDisplay:10.37,2013-08-28 07:30:00,
2013-08-28 02:35:00,74.8,67.1,29.94,SSW,201,2.0,8.0,77,0.00,CLR,SKC,0.00,WeatherDisplay:10.37,2013-08-28 07:35:00,
2013-08-28 02:40:00,74.6,67.3,29.94,SSW,207,2.0,7.0,78,0.00,CLR,SKC,0.00,WeatherDisplay:10.37,2013-08-28 07:40:00,
2013-08-28 02:45:00,74.4,67.1,29.94,SSW,193,1.0,5.0,78,0.00,CLR,SKC,0.00,WeatherDisplay:10.37,2013-08-28 07:45:00,
2013-08-28 02:50:00,74.3,67.0,29.94,SSE,167,1.0,7.0,78,0.00,CLR,SKC,0.00,WeatherDisplay:10.37,2013-08-28 07:50:00,
2013-08-28 02:55:00,74.1,67.2,29.95,South,176,1.0,7.0,79,0.00,CLR,SKC,0.00,WeatherDisplay:10.37,2013-08-28 07:55:00,
2013-08-28 03:00:00,74.0,67.1,29.95,SSW,192,1.0,2.0,79,0.00,CLR,SKC,0.00,WeatherDisplay:10.37,2013-08-28 08:00:00,
2013-08-28 03:05:00,73.9,66.9,29.95,SSW,202,1.0,3.0,79,0.00,CLR,SKC,0.00,WeatherDisplay:10.37,2013-08-28 08:05:00,
2013-08-28 03:10:00,73.7,67.2,29.95,South,178,0.0,3.0,80,0.00,CLR,SKC,0.00,WeatherDisplay:10.37,2013-08-28 08:10:00,
2013-08-28 03:15:00,73.6,67.0,29.95,South,170,1.0,7.0,80,0.00,CLR,SKC,0.00,WeatherDisplay:10.37,2013-08-28 08:15:00,
2013-08-28 03:20:00,73.5,67.0,29.95,SSW,195,0.0,3.0,80,0.00,CLR,SKC,0.00,WeatherDisplay:10.37,2013-08-28 08:20:00,
2013-08-28 03:25:00,73.4,66.9,29.95,SSW,201,1.0,3.0,80,0.00,CLR,SKC,0.00,WeatherDisplay:10.37,2013-08-28 08:25:00,
2013-08-28 03:30:00,73.4,66.9,29.95,SSE,153,1.0,5.0,80,0.00,CLR,SKC,0.00,WeatherDisplay:10.37,2013-08-28 08:30:00,
2013-08-28 03:40:00,73.3,67.1,29.95,South,182,0.0,3.0,81,0.00,CLR,SKC,0.00,WeatherDisplay:10.37,2013-08-28 08:40:00,
2013-08-28 03:45:00,73.3,67.1,29.95,SSW,212,1.0,5.0,81,0.00,CLR,SKC,0.00,WeatherDisplay:10.37,2013-08-28 08:45:00,
2013-08-28 03:50:00,73.3,67.1,29.95,SW,219,0.0,3.0,81,0.00,CLR,SKC,0.00,WeatherDisplay:10.37,2013-08-28 08:50:00,
2013-08-28 03:55:00,73.2,67.0,29.95,SW,217,0.0,2.0,81,0.00,CLR,SKC,0.00,WeatherDisplay:10.37,2013-08-28 08:55:00,
2013-08-28 04:00:00,73.1,66.9,29.95,South,176,0.0,3.0,81,0.00,CLR,SKC,0.00,WeatherDisplay:10.37,2013-08-28 09:00:00,
2013-08-28 04:05:00,73.1,67.3,29.95,South,179,0.0,3.0,82,0.00,CLR,SKC,0.00,WeatherDisplay:10.37,2013-08-28 09:05:00,
2013-08-28 04:10:00,73.1,67.3,29.95,SSW,197,0.0,3.0,82,0.00,CLR,SKC,0.00,WeatherDisplay:10.37,2013-08-28 09:10:00,
2013-08-28 04:15:00,73.1,67.3,29.95,SSW,201,0.0,0.0,82,0.00,CLR,SKC,0.00,WeatherDisplay:10.37,2013-08-28 09:15:00,
2013-08-28 04:20:00,73.0,67.2,29.95,SSW,207,0.0,0.0,82,0.00,CLR,SKC,0.00,WeatherDisplay:10.37,2013-08-28 09:20:00,
2013-08-28 04:25:00,73.0,67.5,29.95,SSW,210,0.0,2.0,83,0.00,CLR,SKC,0.00,WeatherDisplay:10.37,2013-08-28 09:25:00,
2013-08-28 04:30:00,73.1,67.3,29.95,SW,215,0.0,2.0,82,0.00,CLR,SKC,0.00,WeatherDisplay:10.37,2013-08-28 09:30:00,
2013-08-28 04:35:00,73.2,67.4,29.95,SW,221,0.0,2.0,82,0.00,CLR,SKC,0.00,WeatherDisplay:10.37,2013-08-28 09:35:00,
2013-08-28 04:40:00,73.2,67.4,29.95,SW,219,0.0,0.0,82,0.00,CLR,SKC,0.00,WeatherDisplay:10.37,2013-08-28 09:40:00,
2013-08-28 04:45:00,73.2,67.7,29.95,SW,219,0.0,2.0,83,0.00,CLR,SKC,0.00,WeatherDisplay:10.37,2013-08-28 09:45:00,
2013-08-28 04:50:00,73.2,67.7,29.95,SSW,202,0.0,2.0,83,0.00,CLR,SKC,0.00,WeatherDisplay:10.37,2013-08-28 09:50:00,
2013-08-28 04:55:00,73.2,67.7,29.95,SW,217,0.0,2.0,83,0.00,CLR,SKC,0.00,WeatherDisplay:10.37,2013-08-28 09:55:00,
2013-08-28 05:00:00,73.2,67.8,29.95,WSW,241,0.0,2.0,83,0.00,CLR,SKC,0.00,WeatherDisplay:10.37,2013-08-28 10:00:00,
2013-08-28 05:05:00,73.2,68.1,29.95,SSW,210,0.0,3.0,84,0.00,CLR,SKC,0.00,WeatherDisplay:10.37,2013-08-28 10:05:00,
2013-08-28 05:10:00,73.1,68.0,29.95,South,180,0.0,3.0,84,0.00,CLR,SKC,0.00,WeatherDisplay:10.37,2013-08-28 10:10:00,
2013-08-28 05:15:00,73.1,68.0,29.95,South,189,0.0,2.0,84,0.00,CLR,SKC,0.00,WeatherDisplay:10.37,2013-08-28 10:15:00,
2013-08-28 05:20:00,73.0,67.9,29.95,SSW,205,0.0,2.0,84,0.00,CLR,SKC,0.00,WeatherDisplay:10.37,2013-08-28 10:20:00,
2013-08-28 05:30:00,72.8,68.1,29.95,SW,224,0.0,1.0,85,0.00,CLR,SKC,0.00,WeatherDisplay:10.37,2013-08-28 10:30:00,
2013-08-28 05:35:00,72.7,67.9,29.95,WSW,240,0.0,2.0,85,0.00,CLR,SKC,0.00,WeatherDisplay:10.37,2013-08-28 10:35:00,
2013-08-28 05:40:00,72.6,67.8,29.95,WSW,242,0.0,0.0,85,0.00,CLR,SKC,0.00,WeatherDisplay:10.37,2013-08-28 10:40:00,
2013-08-28 05:45:00,72.5,68.1,29.95,WSW,245,0.0,5.0,86,0.00,CLR,SKC,0.00,WeatherDisplay:10.37,2013-08-28 10:45:00,
2013-08-28 05:50:00,72.4,68.0,29.95,WSW,240,0.0,5.0,86,0.00,CLR,SKC,0.00,WeatherDisplay:10.37,2013-08-28 10:50:00,
2013-08-28 05:55:00,72.3,67.9,29.95,SW,220,0.0,5.0,86,0.00,CLR,SKC,0.00,WeatherDisplay:10.37,2013-08-28 10:55:00,
2013-08-28 06:00:00,72.2,68.1,29.96,SSE,166,0.0,0.0,87,0.00,CLR,SKC,0.00,WeatherDisplay:10.37,2013-08-28 11:00:00,
2013-08-28 06:05:00,72.2,68.1,29.96,SSW,195,0.0,2.0,87,0.00,CLR,SKC,0.00,WeatherDisplay:10.37,2013-08-28 11:05:00,
2013-08-28 06:10:00,72.1,68.0,29.96,SW,229,0.0,2.0,87,0.00,CLR,SKC,0.00,WeatherDisplay:10.37,2013-08-28 11:10:00,
2013-08-28 06:15:00,72.1,68.0,29.96,SW,229,0.0,1.0,87,0.00,CLR,SKC,0.00,WeatherDisplay:10.37,2013-08-28 11:15:00,
2013-08-28 06:20:00,72.1,68.4,29.96,SW,229,0.0,0.0,88,0.00,CLR,SKC,0.00,WeatherDisplay:10.37,2013-08-28 11:20:00,
2013-08-28 06:25:00,72.1,68.4,29.96,SW,225,0.0,2.0,88,0.00,CLR,SKC,0.00,WeatherDisplay:10.37,2013-08-28 11:25:00,
2013-08-28 06:30:00,72.1,68.4,29.97,SSW,203,0.0,0.0,88,0.00,CLR,SKC,0.00,WeatherDisplay:10.37,2013-08-28 11:30:00,
2013-08-28 06:35:00,72.0,68.3,29.97,SSW,203,0.0,0.0,88,0.00,CLR,SKC,0.00,WeatherDisplay:10.37,2013-08-28 11:35:00,
2013-08-28 06:40:00,71.9,68.2,29.97,SSW,203,0.0,0.0,88,0.00,CLR,SKC,0.00,WeatherDisplay:10.37,2013-08-28 11:40:00,
2013-08-28 06:45:00,71.8,68.1,29.97,SSW,203,0.0,0.0,88,0.00,CLR,SKC,0.00,WeatherDisplay:10.37,2013-08-28 11:45:00,
2013-08-28 06:50:00,71.7,68.3,29.97,SSW,206,0.0,2.0,89,0.00,CLR,SKC,0.00,WeatherDisplay:10.37,2013-08-28 11:50:00,
2013-08-28 06:55:00,71.7,68.3,29.97,SSW,198,0.0,2.0,89,0.00,CLR,SKC,0.00,WeatherDisplay:10.37,2013-08-28 11:55:00,
2013-08-28 07:00:00,71.8,68.4,29.98,SSW,200,0.0,2.0,89,0.00,CLR,SKC,0.00,WeatherDisplay:10.37,2013-08-28 12:00:00,
2013-08-28 07:05:00,71.9,68.5,29.98,SSW,207,0.0,0.0,89,0.00,CLR,SKC,0.00,WeatherDisplay:10.37,2013-08-28 12:05:00,
2013-08-28 07:10:00,72.0,68.6,29.98,SW,219,1.0,3.0,89,0.00,CLR,SKC,0.00,WeatherDisplay:10.37,2013-08-28 12:10:00,
2013-08-28 07:15:00,72.2,68.8,29.98,WSW,244,0.0,0.0,89,0.00,CLR,SKC,0.00,WeatherDisplay:10.37,2013-08-28 12:15:00,
2013-08-28 07:20:00,72.7,68.9,29.98,WSW,247,0.0,2.0,88,0.00,CLR,SKC,0.00,WeatherDisplay:10.37,2013-08-28 12:20:00,
2013-08-28 07:25:00,73.1,69.3,29.98,WSW,238,0.0,2.0,88,0.00,CLR,SKC,0.00,WeatherDisplay:10.37,2013-08-28 12:25:00,
2013-08-28 07:30:00,73.4,69.3,29.98,WSW,242,0.0,2.0,87,0.00,CLR,SKC,0.00,WeatherDisplay:10.37,2013-08-28 12:30:00,
2013-08-28 07:35:00,73.6,69.1,29.98,WSW,255,0.0,0.0,86,0.00,CLR,SKC,0.00,WeatherDisplay:10.37,2013-08-28 12:35:00,
2013-08-28 07:40:00,73.7,69.3,29.98,WSW,249,1.0,3.0,86,0.00,CLR,SKC,0.00,WeatherDisplay:10.37,2013-08-28 12:40:00,
2013-08-28 07:45:00,73.9,69.5,29.98,WSW,242,0.0,2.0,86,0.00,CLR,SKC,0.00,WeatherDisplay:10.37,2013-08-28 12:45:00,
2013-08-28 07:50:00,74.1,69.7,29.98,WSW,255,0.0,3.0,86,0.00,CLR,SKC,0.00,WeatherDisplay:10.37,2013-08-28 12:50:00,
2013-08-28 07:55:00,74.3,69.5,29.98,West,276,0.0,1.0,85,0.00,CLR,SKC,0.00,WeatherDisplay:10.37,2013-08-28 12:55:00,
2013-08-28 08:00:00,74.6,69.7,29.99,West,279,0.0,0.0,85,0.00,CLR,SKC,0.00,WeatherDisplay:10.37,2013-08-28 13:00:00,
2013-08-28 08:05:00,74.8,70.0,29.99,West,276,0.0,2.0,85,0.00,CLR,SKC,0.00,WeatherDisplay:10.37,2013-08-28 13:05:00,
2013-08-28 08:10:00,75.1,70.0,29.99,West,273,0.0,2.0,84,0.00,CLR,SKC,0.00,WeatherDisplay:10.37,2013-08-28 13:10:00,
2013-08-28 08:15:00,75.4,70.3,29.99,West,274,0.0,2.0,84,0.00,CLR,SKC,0.00,WeatherDisplay:10.37,2013-08-28 13:15:00,
2013-08-28 08:20:00,75.7,70.2,29.99,SW,236,0.0,2.0,83,0.00,CLR,SKC,0.00,WeatherDisplay:10.37,2013-08-28 13:20:00,
2013-08-28 08:25:00,76.0,70.5,29.99,ESE,115,0.0,2.0,83,0.00,CLR,SKC,0.00,WeatherDisplay:10.37,2013-08-28 13:25:00,
2013-08-28 08:30:00,76.3,70.8,29.99,East,89,0.0,0.0,83,0.00,CLR,SKC,0.00,WeatherDisplay:10.37,2013-08-28 13:30:00,
2013-08-28 08:35:00,76.8,70.9,29.99,ENE,64,0.0,2.0,82,0.00,CLR,SKC,0.00,WeatherDisplay:10.37,2013-08-28 13:35:00,
2013-08-28 08:40:00,77.3,71.0,29.99,West,260,1.0,2.0,81,0.00,CLR,SKC,0.00,WeatherDisplay:10.37,2013-08-28 13:40:00,
2013-08-28 08:45:00,77.9,71.2,29.99,WSW,247,0.0,2.0,80,0.00,CLR,SKC,0.00,WeatherDisplay:10.37,2013-08-28 13:45:00,
2013-08-28 08:50:00,78.5,71.4,29.99,SSW,198,0.0,2.0,79,0.00,CLR,SKC,0.00,WeatherDisplay:10.37,2013-08-28 13:50:00,
2013-08-28 08:55:00,79.0,71.5,29.99,SE,146,0.0,2.0,78,0.00,CLR,SKC,0.00,WeatherDisplay:10.37,2013-08-28 13:55:00,
2013-08-28 09:00:00,79.5,71.7,30.00,SSW,212,1.0,3.0,77,0.00,CLR,SKC,0.00,WeatherDisplay:10.37,2013-08-28 14:00:00,
2013-08-28 09:05:00,80.1,71.9,30.00,SW,220,0.0,2.0,76,0.00,CLR,SKC,0.00,WeatherDisplay:10.37,2013-08-28 14:05:00,
2013-08-28 09:10:00,80.8,72.1,30.00,SW,220,0.0,3.0,75,0.00,CLR,SKC,0.00,WeatherDisplay:10.37,2013-08-28 14:10:00,
2013-08-28 09:20:00,82.1,72.5,30.00,SSW,213,0.0,2.0,73,0.00,CLR,SKC,0.00,WeatherDisplay:10.37,2013-08-28 14:20:00,
2013-08-28 09:25:00,82.8,72.4,30.00,SSW,209,0.0,2.0,71,0.00,CLR,SKC,0.00,WeatherDisplay:10.37,2013-08-28 14:25:00,
2013-08-28 09:30:00,83.3,72.5,30.00,SW,219,0.0,3.0,70,0.00,CLR,SKC,0.00,WeatherDisplay:10.37,2013-08-28 14:30:00,
2013-08-28 09:35:00,83.5,72.3,30.00,WSW,256,0.0,5.0,69,0.00,CLR,SKC,0.00,WeatherDisplay:10.37,2013-08-28 14:35:00,
2013-08-28 09:40:00,83.8,72.1,30.00,West,278,0.0,0.0,68,0.00,CLR,SKC,0.00,WeatherDisplay:10.37,2013-08-28 14:40:00,
2013-08-28 09:45:00,84.3,72.6,30.00,WNW,284,0.0,0.0,68,0.00,CLR,SKC,0.00,WeatherDisplay:10.37,2013-08-28 14:45:00,
2013-08-28 09:50:00,84.6,72.4,29.99,WNW,283,0.0,2.0,67,0.00,CLR,SKC,0.00,WeatherDisplay:10.37,2013-08-28 14:50:00,
2013-08-28 09:55:00,84.8,71.7,30.00,WNW,283,0.0,2.0,65,0.00,CLR,SKC,0.00,WeatherDisplay:10.37,2013-08-28 14:55:00,
2013-08-28 10:00:00,85.2,72.6,30.00,West,269,0.0,2.0,66,0.00,CLR,SKC,0.00,WeatherDisplay:10.37,2013-08-28 15:00:00,
2013-08-28 10:05:00,85.9,72.7,30.00,West,259,2.0,5.0,65,0.00,CLR,SKC,0.00,WeatherDisplay:10.37,2013-08-28 15:05:00,
2013-08-28 10:10:00,85.9,72.3,30.00,WSW,250,1.0,3.0,64,0.00,CLR,SKC,0.00,WeatherDisplay:10.37,2013-08-28 15:10:00,
2013-08-28 10:15:00,86.1,73.4,30.00,SW,235,0.0,3.0,66,0.00,CLR,SKC,0.00,WeatherDisplay:10.37,2013-08-28 15:15:00,
2013-08-28 10:20:00,86.3,73.2,30.00,WSW,241,1.0,3.0,65,0.00,CLR,SKC,0.00,WeatherDisplay:10.37,2013-08-28 15:20:00,
2013-08-28 10:25:00,86.6,72.9,30.00,WSW,248,0.0,2.0,64,0.00,CLR,SKC,0.00,WeatherDisplay:10.37,2013-08-28 15:25:00,
2013-08-28 10:30:00,87.1,73.0,30.00,WSW,241,1.0,5.0,63,0.00,CLR,SKC,0.00,WeatherDisplay:10.37,2013-08-28 15:30:00,
2013-08-28 10:35:00,87.3,73.2,30.00,West,259,1.0,7.0,63,0.00,CLR,SKC,0.00,WeatherDisplay:10.37,2013-08-28 15:35:00,
2013-08-28 10:40:00,87.2,72.6,30.00,West,269,1.0,3.0,62,0.00,CLR,SKC,0.00,WeatherDisplay:10.37,2013-08-28 15:40:00,
2013-08-28 10:45:00,87.5,72.9,30.00,WSW,250,2.0,3.0,62,0.00,CLR,SKC,0.00,WeatherDisplay:10.37,2013-08-28 15:45:00,
2013-08-28 10:50:00,87.8,73.2,30.00,SW,218,0.0,3.0,62,0.00,CLR,SKC,0.00,WeatherDisplay:10.37,2013-08-28 15:50:00,
2013-08-28 10:55:00,88.3,73.2,30.00,WSW,240,0.0,5.0,61,0.00,CLR,SKC,0.00,WeatherDisplay:10.37,2013-08-28 15:55:00,
2013-08-28 11:05:00,89.2,72.5,30.00,WSW,246,0.0,3.0,58,0.00,CLR,SKC,0.00,WeatherDisplay:10.37,2013-08-28 16:05:00,
2013-08-28 11:10:00,89.3,72.6,30.00,WSW,245,1.0,6.0,58,0.00,CLR,SKC,0.00,WeatherDisplay:10.37,2013-08-28 16:10:00,
2013-08-28 11:15:00,89.8,73.6,30.00,West,280,0.0,5.0,59,0.00,CLR,SKC,0.00,WeatherDisplay:10.37,2013-08-28 16:15:00,
2013-08-28 11:20:00,89.9,72.6,30.00,WNW,283,2.0,7.0,57,0.00,CLR,SKC,0.00,WeatherDisplay:10.37,2013-08-28 16:20:00,
2013-08-28 11:30:00,89.6,71.8,30.00,WSW,239,1.0,3.0,56,0.00,CLR,SKC,0.00,WeatherDisplay:10.37,2013-08-28 16:30:00,
2013-08-28 11:35:00,89.7,71.9,30.00,West,273,1.0,3.0,56,0.00,CLR,SKC,0.00,WeatherDisplay:10.37,2013-08-28 16:35:00,
2013-08-28 11:40:00,89.9,72.1,30.00,WNW,290,1.0,3.0,56,0.00,CLR,SKC,0.00,WeatherDisplay:10.37,2013-08-28 16:40:00,
2013-08-28 11:50:00,90.5,72.1,29.99,WSW,247,1.0,3.0,55,0.00,CLR,SKC,0.00,WeatherDisplay:10.37,2013-08-28 16:50:00,
2013-08-28 11:55:00,90.6,72.2,30.00,SW,227,2.0,5.0,55,0.00,CLR,SKC,0.00,WeatherDisplay:10.37,2013-08-28 16:55:00,
2013-08-28 12:00:00,91.3,72.8,30.00,WSW,237,0.0,3.0,55,0.00,CLR,SKC,0.00,WeatherDisplay:10.37,2013-08-28 17:00:00,
2013-08-28 12:05:00,91.4,72.4,30.00,WSW,248,0.0,5.0,54,0.00,CLR,SKC,0.00,WeatherDisplay:10.37,2013-08-28 17:05:00,
2013-08-28 12:10:00,91.3,72.4,30.00,WNW,295,2.0,5.0,54,0.00,CLR,SKC,0.00,WeatherDisplay:10.37,2013-08-28 17:10:00,
2013-08-28 12:15:00,91.9,72.8,30.00,SW,224,1.0,5.0,54,0.00,CLR,SKC,0.00,WeatherDisplay:10.37,2013-08-28 17:15:00,
2013-08-28 12:20:00,92.0,72.9,29.99,SW,219,1.0,5.0,54,0.00,CLR,SKC,0.00,WeatherDisplay:10.37,2013-08-28 17:20:00,
2013-08-28 12:25:00,92.1,72.5,29.99,WSW,237,1.0,8.0,53,0.00,CLR,SKC,0.00,WeatherDisplay:10.37,2013-08-28 17:25:00,
2013-08-28 12:30:00,92.2,72.0,29.99,WSW,241,1.0,5.0,52,0.00,CLR,SKC,0.00,WeatherDisplay:10.37,2013-08-28 17:30:00,
2013-08-28 12:35:00,92.3,72.1,29.99,WSW,238,1.0,5.0,52,0.00,CLR,SKC,0.00,WeatherDisplay:10.37,2013-08-28 17:35:00,
2013-08-28 12:40:00,92.3,72.2,29.99,West,263,1.0,3.0,52,0.00,CLR,SKC,0.00,WeatherDisplay:10.37,2013-08-28 17:40:00,
2013-08-28 12:45:00,92.1,71.9,29.99,SSW,201,3.0,7.0,52,0.00,CLR,SKC,0.00,WeatherDisplay:10.37,2013-08-28 17:45:00,
2013-08-28 12:50:00,92.4,72.2,29.99,WSW,242,2.0,7.0,52,0.00,CLR,SKC,0.00,WeatherDisplay:10.37,2013-08-28 17:50:00,
2013-08-28 13:00:00,92.5,72.3,29.98,SW,233,3.0,12.0,52,0.00,CLR,SKC,0.00,WeatherDisplay:10.37,2013-08-28 18:00:00,
2013-08-28 13:10:00,93.0,72.2,29.98,SSW,202,1.0,3.0,51,0.00,CLR,SKC,0.00,WeatherDisplay:10.37,2013-08-28 18:10:00,
2013-08-28 13:15:00,92.9,72.1,29.98,West,270,1.0,5.0,51,0.00,CLR,SKC,0.00,WeatherDisplay:10.37,2013-08-28 18:15:00,
2013-08-28 13:20:00,92.7,72.5,29.98,North,349,1.0,5.0,52,0.00,CLR,SKC,0.00,WeatherDisplay:10.37,2013-08-28 18:20:00,
2013-08-28 13:30:00,92.5,71.8,29.98,West,272,1.0,3.0,51,0.00,CLR,SKC,0.00,WeatherDisplay:10.37,2013-08-28 18:30:00,
2013-08-28 13:35:00,92.8,72.6,29.98,West,277,1.0,3.0,52,0.00,CLR,SKC,0.00,WeatherDisplay:10.37,2013-08-28 18:35:00,
2013-08-28 13:40:00,93.5,72.6,29.98,SSW,209,2.0,8.0,51,0.00,CLR,SKC,0.00,WeatherDisplay:10.37,2013-08-28 18:40:00,
2013-08-28 13:45:00,94.0,72.5,29.98,West,263,0.0,5.0,50,0.00,CLR,SKC,0.00,WeatherDisplay:10.37,2013-08-28 18:45:00,
2013-08-28 13:50:00,94.3,72.2,29.98,NW,307,2.0,5.0,49,0.00,CLR,SKC,0.00,WeatherDisplay:10.37,2013-08-28 18:50:00,
2013-08-28 13:55:00,94.6,71.8,29.97,SSW,198,1.0,10.0,48,0.00,CLR,SKC,0.00,WeatherDisplay:10.37,2013-08-28 18:55:00,
2013-08-28 14:05:00,94.5,72.4,29.97,SW,236,2.0,11.0,49,0.00,CLR,SKC,0.00,WeatherDisplay:10.37,2013-08-28 19:05:00,
2013-08-28 14:10:00,94.6,71.9,29.97,SW,217,1.0,9.0,48,0.00,CLR,SKC,0.00,WeatherDisplay:10.37,2013-08-28 19:10:00,
2013-08-28 14:15:00,94.1,71.4,29.97,SW,228,2.0,7.0,48,0.00,CLR,SKC,0.00,WeatherDisplay:10.37,2013-08-28 19:15:00,
2013-08-28 14:20:00,93.1,71.7,29.97,SW,226,2.0,7.0,50,0.00,CLR,SKC,0.00,WeatherDisplay:10.37,2013-08-28 19:20:00,
2013-08-28 14:25:00,93.5,72.1,29.97,SW,219,1.0,3.0,50,0.00,CLR,SKC,0.00,WeatherDisplay:10.37,2013-08-28 19:25:00,
2013-08-28 14:30:00,93.9,71.9,29.97,WNW,286,1.0,7.0,49,0.00,CLR,SKC,0.00,WeatherDisplay:10.37,2013-08-28 19:30:00,
2013-08-28 14:35:00,94.1,72.0,29.96,SW,236,0.0,8.0,49,0.00,CLR,SKC,0.00,WeatherDisplay:10.37,2013-08-28 19:35:00,
2013-08-28 14:40:00,94.2,72.1,29.96,SW,225,1.0,2.0,49,0.00,CLR,SKC,0.00,WeatherDisplay:10.37,2013-08-28 19:40:00,
2013-08-28 14:50:00,93.8,71.7,29.96,West,270,0.0,3.0,49,0.00,CLR,SKC,0.00,WeatherDisplay:10.37,2013-08-28 19:50:00,
2013-08-28 15:00:00,93.7,72.3,29.95,SSW,202,3.0,12.0,50,0.00,CLR,SKC,0.00,WeatherDisplay:10.37,2013-08-28 20:00:00,
2013-08-28 15:05:00,93.4,72.0,29.95,SSW,212,1.0,5.0,50,0.00,CLR,SKC,0.00,WeatherDisplay:10.37,2013-08-28 20:05:00,
2013-08-28 15:10:00,93.3,71.9,29.95,WNW,301,0.0,3.0,50,0.00,CLR,SKC,0.00,WeatherDisplay:10.37,2013-08-28 20:10:00,
2013-08-28 15:15:00,92.8,71.4,29.95,SW,231,6.0,10.0,50,0.00,CLR,SKC,0.00,WeatherDisplay:10.37,2013-08-28 20:15:00,
2013-08-28 15:20:00,92.4,71.6,29.95,SW,229,5.0,15.0,51,0.00,CLR,SKC,0.00,WeatherDisplay:10.37,2013-08-28 20:20:00,
2013-08-28 15:25:00,92.8,72.0,29.95,SW,222,3.0,10.0,51,0.00,CLR,SKC,0.00,WeatherDisplay:10.37,2013-08-28 20:25:00,
2013-08-28 15:30:00,93.6,72.1,29.95,SSW,203,3.0,10.0,50,0.00,CLR,SKC,0.00,WeatherDisplay:10.37,2013-08-28 20:30:00,
2013-08-28 15:35:00,93.6,71.6,29.95,SSE,164,1.0,3.0,49,0.00,CLR,SKC,0.00,WeatherDisplay:10.37,2013-08-28 20:35:00,
2013-08-28 15:40:00,93.6,72.2,29.95,SW,236,1.0,5.0,50,0.00,CLR,SKC,0.00,WeatherDisplay:10.37,2013-08-28 20:40:00,
2013-08-28 15:45:00,94.1,72.0,29.95,WSW,244,1.0,6.0,49,0.00,CLR,SKC,0.00,WeatherDisplay:10.37,2013-08-28 20:45:00,
2013-08-28 15:50:00,93.4,71.4,29.95,WSW,242,0.0,2.0,49,0.00,CLR,SKC,0.00,WeatherDisplay:10.37,2013-08-28 20:50:00,
2013-08-28 15:55:00,93.1,71.7,29.95,SSW,212,1.0,8.0,50,0.00,CLR,SKC,0.00,WeatherDisplay:10.37,2013-08-28 20:55:00,
2013-08-28 16:00:00,93.6,72.2,29.95,SW,227,5.0,12.0,50,0.00,CLR,SKC,0.00,WeatherDisplay:10.37,2013-08-28 21:00:00,
2013-08-28 16:05:00,93.8,72.4,29.95,SSW,212,2.0,12.0,50,0.00,CLR,SKC,0.00,WeatherDisplay:10.37,2013-08-28 21:05:00,
2013-08-28 16:10:00,93.7,71.7,29.94,SSW,193,2.0,3.0,49,0.00,CLR,SKC,0.00,WeatherDisplay:10.37,2013-08-28 21:10:00,
2013-08-28 16:15:00,93.5,72.0,29.95,SW,223,5.0,8.0,50,0.00,CLR,SKC,0.00,WeatherDisplay:10.37,2013-08-28 21:15:00,
2013-08-28 16:20:00,93.3,71.9,29.94,SW,226,3.0,10.0,50,0.00,CLR,SKC,0.00,WeatherDisplay:10.37,2013-08-28 21:20:00,
2013-08-28 16:25:00,93.9,72.4,29.94,SW,217,2.0,7.0,50,0.00,CLR,SKC,0.00,WeatherDisplay:10.37,2013-08-28 21:25:00,
2013-08-28 16:30:00,93.7,71.6,29.94,WSW,238,2.0,5.0,49,0.00,CLR,SKC,0.00,WeatherDisplay:10.37,2013-08-28 21:30:00,
2013-08-28 16:40:00,92.5,71.7,29.94,SSW,195,0.0,7.0,51,0.00,CLR,SKC,0.00,WeatherDisplay:10.37,2013-08-28 21:40:00,
2013-08-28 16:45:00,93.0,72.2,29.94,SW,221,2.0,10.0,51,0.00,CLR,SKC,0.00,WeatherDisplay:10.37,2013-08-28 21:45:00,
2013-08-28 16:50:00,93.7,72.2,29.94,SW,224,1.0,8.0,50,0.00,CLR,SKC,0.00,WeatherDisplay:10.37,2013-08-28 21:50:00,
2013-08-28 16:55:00,94.2,72.1,29.94,South,189,2.0,10.0,49,0.00,CLR,SKC,0.00,WeatherDisplay:10.37,2013-08-28 21:55:00,
2013-08-28 17:00:00,94.4,71.7,29.94,South,186,1.0,8.0,48,0.00,CLR,SKC,0.00,WeatherDisplay:10.37,2013-08-28 22:00:00,
2013-08-28 17:05:00,94.6,71.9,29.94,SW,221,3.0,10.0,48,0.00,CLR,SKC,0.00,WeatherDisplay:10.37,2013-08-28 22:05:00,
2013-08-28 17:10:00,94.4,71.1,29.94,SSW,210,3.0,8.0,47,0.00,CLR,SKC,0.00,WeatherDisplay:10.37,2013-08-28 22:10:00,
2013-08-28 17:15:00,94.8,72.1,29.94,SW,218,1.0,5.0,48,0.00,CLR,SKC,0.00,WeatherDisplay:10.37,2013-08-28 22:15:00,
2013-08-28 17:20:00,95.1,71.7,29.94,SW,220,0.0,2.0,47,0.00,CLR,SKC,0.00,WeatherDisplay:10.37,2013-08-28 22:20:00,
2013-08-28 17:25:00,94.9,71.5,29.94,SSW,211,5.0,13.0,47,0.00,CLR,SKC,0.00,WeatherDisplay:10.37,2013-08-28 22:25:00,
2013-08-28 17:30:00,94.2,71.5,29.94,SW,224,6.0,13.0,48,0.00,CLR,SKC,0.00,WeatherDisplay:10.37,2013-08-28 22:30:00,
2013-08-28 17:35:00,94.0,71.9,29.94,SW,219,1.0,9.0,49,0.00,CLR,SKC,0.00,WeatherDisplay:10.37,2013-08-28 22:35:00,
2013-08-28 17:40:00,93.9,71.9,29.94,SW,221,1.0,10.0,49,0.00,CLR,SKC,0.00,WeatherDisplay:10.37,2013-08-28 22:40:00,
2013-08-28 17:45:00,93.4,72.0,29.94,SW,221,2.0,5.0,50,0.00,CLR,SKC,0.00,WeatherDisplay:10.37,2013-08-28 22:45:00,
2013-08-28 17:50:00,92.9,71.5,29.94,SSW,212,3.0,12.0,50,0.00,CLR,SKC,0.00,WeatherDisplay:10.37,2013-08-28 22:50:00,
2013-08-28 17:55:00,92.3,71.5,29.94,WSW,240,3.0,12.0,51,0.00,CLR,SKC,0.00,WeatherDisplay:10.37,2013-08-28 22:55:00,
2013-08-28 18:00:00,91.9,71.7,29.94,WSW,254,0.0,7.0,52,0.00,CLR,SKC,0.00,WeatherDisplay:10.37,2013-08-28 23:00:00,
2013-08-28 18:05:00,91.5,71.4,29.94,WSW,240,1.0,7.0,52,0.00,CLR,SKC,0.00,WeatherDisplay:10.37,2013-08-28 23:05:00,
2013-08-28 18:10:00,91.3,71.2,29.94,SW,233,2.0,3.0,52,0.00,CLR,SKC,0.00,WeatherDisplay:10.37,2013-08-28 23:10:00,
2013-08-28 18:15:00,91.1,71.6,29.94,SW,214,3.0,10.0,53,0.00,CLR,SKC,0.00,WeatherDisplay:10.37,2013-08-28 23:15:00,
2013-08-28 18:20:00,90.9,71.4,29.94,WSW,240,0.0,3.0,53,0.00,CLR,SKC,0.00,WeatherDisplay:10.37,2013-08-28 23:20:00,
2013-08-28 18:25:00,90.7,71.2,29.95,SSW,202,2.0,7.0,53,0.00,CLR,SKC,0.00,WeatherDisplay:10.37,2013-08-28 23:25:00,
2013-08-28 18:30:00,90.3,71.4,29.95,SSW,199,1.0,7.0,54,0.00,CLR,SKC,0.00,WeatherDisplay:10.37,2013-08-28 23:30:00,
2013-08-28 18:35:00,90.0,71.7,29.95,South,189,0.0,2.0,55,0.00,CLR,SKC,0.00,WeatherDisplay:10.37,2013-08-28 23:35:00,
2013-08-28 18:40:00,89.8,71.5,29.95,South,186,2.0,6.0,55,0.00,CLR,SKC,0.00,WeatherDisplay:10.37,2013-08-28 23:40:00,
2013-08-28 18:45:00,89.5,71.7,29.95,South,178,1.0,3.0,56,0.00,CLR,SKC,0.00,WeatherDisplay:10.37,2013-08-28 23:45:00,
2013-08-28 18:50:00,89.3,71.6,29.95,South,190,0.0,3.0,56,0.00,CLR,SKC,0.00,WeatherDisplay:10.37,2013-08-28 23:50:00,
2013-08-28 18:55:00,89.1,71.3,29.95,SSW,206,1.0,3.0,56,0.00,CLR,SKC,0.00,WeatherDisplay:10.37,2013-08-28 23:55:00,
2013-08-28 19:00:00,88.8,71.6,29.95,South,186,1.0,5.0,57,0.00,CLR,SKC,0.00,WeatherDisplay:10.37,2013-08-29 00:00:00,
2013-08-28 19:05:00,88.4,71.3,29.95,SSW,193,0.0,3.0,57,0.00,CLR,SKC,0.00,WeatherDisplay:10.37,2013-08-29 00:05:00,
2013-08-28 19:10:00,88.2,71.6,29.95,South,169,0.0,2.0,58,0.00,CLR,SKC,0.00,WeatherDisplay:10.37,2013-08-29 00:10:00,
2013-08-28 19:15:00,88.1,71.4,29.95,SSE,155,0.0,2.0,58,0.00,CLR,SKC,0.00,WeatherDisplay:10.37,2013-08-29 00:15:00,
2013-08-28 19:20:00,87.9,71.8,29.95,South,175,1.0,3.0,59,0.00,CLR,SKC,0.00,WeatherDisplay:10.37,2013-08-29 00:20:00,
2013-08-28 19:25:00,87.7,71.6,29.95,SSW,193,1.0,3.0,59,0.00,CLR,SKC,0.00,WeatherDisplay:10.37,2013-08-29 00:25:00,
2013-08-28 19:30:00,87.5,71.4,29.95,SSW,200,1.0,3.0,59,0.00,CLR,SKC,0.00,WeatherDisplay:10.37,2013-08-29 00:30:00,
2013-08-28 19:35:00,87.3,71.7,29.95,SSW,203,0.0,2.0,60,0.00,CLR,SKC,0.00,WeatherDisplay:10.37,2013-08-29 00:35:00,
2013-08-28 19:40:00,87.1,71.5,29.95,SSW,204,0.0,1.0,60,0.00,CLR,SKC,0.00,WeatherDisplay:10.37,2013-08-29 00:40:00,
2013-08-28 19:45:00,86.8,71.7,29.95,SSW,203,0.0,0.0,61,0.00,CLR,SKC,0.00,WeatherDisplay:10.37,2013-08-29 00:45:00,
2013-08-28 19:50:00,86.6,71.6,29.95,SSW,201,0.0,2.0,61,0.00,CLR,SKC,0.00,WeatherDisplay:10.37,2013-08-29 00:50:00,
2013-08-28 19:55:00,86.4,71.8,29.95,SSW,202,0.0,2.0,62,0.00,CLR,SKC,0.00,WeatherDisplay:10.37,2013-08-29 00:55:00,
2013-08-28 20:00:00,86.1,71.6,29.95,SSW,211,0.0,2.0,62,0.00,CLR,SKC,0.00,WeatherDisplay:10.37,2013-08-29 01:00:00,
2013-08-28 20:05:00,85.9,71.8,29.95,SSW,211,0.0,2.0,63,0.00,CLR,SKC,0.00,WeatherDisplay:10.37,2013-08-29 01:05:00,
2013-08-28 20:10:00,85.6,72.1,29.95,SSW,212,0.0,0.0,64,0.00,CLR,SKC,0.00,WeatherDisplay:10.37,2013-08-29 01:10:00,
2013-08-28 20:15:00,85.3,71.7,29.95,SSW,212,0.0,0.0,64,0.00,CLR,SKC,0.00,WeatherDisplay:10.37,2013-08-29 01:15:00,
2013-08-28 20:20:00,84.9,71.8,29.95,SSW,212,0.0,0.0,65,0.00,CLR,SKC,0.00,WeatherDisplay:10.37,2013-08-29 01:20:00,
2013-08-28 20:25:00,84.5,71.9,29.95,SSW,212,0.0,0.0,66,0.00,CLR,SKC,0.00,WeatherDisplay:10.37,2013-08-29 01:25:00,
2013-08-28 20:30:00,84.1,71.9,29.95,SSW,212,0.0,0.0,67,0.00,CLR,SKC,0.00,WeatherDisplay:10.37,2013-08-29 01:30:00,
2013-08-28 20:35:00,83.7,72.0,29.95,SSW,212,0.0,0.0,68,0.00,CLR,SKC,0.00,WeatherDisplay:10.37,2013-08-29 01:35:00,
2013-08-28 20:40:00,83.4,71.7,29.95,SSW,212,0.0,0.0,68,0.00,CLR,SKC,0.00,WeatherDisplay:10.37,2013-08-29 01:40:00,
2013-08-28 20:45:00,83.1,71.9,29.96,SSW,212,0.0,0.0,69,0.00,CLR,SKC,0.00,WeatherDisplay:10.37,2013-08-29 01:45:00,
2013-08-28 20:50:00,82.9,72.1,29.96,SSW,212,0.0,0.0,70,0.00,CLR,SKC,0.00,WeatherDisplay:10.37,2013-08-29 01:50:00,
2013-08-28 20:55:00,82.7,71.9,29.96,SSW,212,0.0,0.0,70,0.00,CLR,SKC,0.00,WeatherDisplay:10.37,2013-08-29 01:55:00,
2013-08-28 21:00:00,82.5,71.7,29.96,SSW,212,0.0,0.0,70,0.00,CLR,SKC,0.00,WeatherDisplay:10.37,2013-08-29 02:00:00,
2013-08-28 21:05:00,82.3,71.9,29.96,SSW,212,0.0,0.0,71,0.00,CLR,SKC,0.00,WeatherDisplay:10.37,2013-08-29 02:05:00,
2013-08-28 21:10:00,82.0,71.6,29.96,SSW,212,0.0,0.0,71,0.00,CLR,SKC,0.00,WeatherDisplay:10.37,2013-08-29 02:10:00,
2013-08-28 21:15:00,81.7,71.8,29.96,SSW,212,0.0,0.0,72,0.00,CLR,SKC,0.00,WeatherDisplay:10.37,2013-08-29 02:15:00,
2013-08-28 21:20:00,81.6,71.7,29.96,SSW,212,0.0,0.0,72,0.00,CLR,SKC,0.00,WeatherDisplay:10.37,2013-08-29 02:20:00,
2013-08-28 21:25:00,81.5,72.0,29.96,SSW,212,0.0,0.0,73,0.00,CLR,SKC,0.00,WeatherDisplay:10.37,2013-08-29 02:25:00,
2013-08-28 21:30:00,81.2,71.7,29.97,SSW,212,0.0,0.0,73,0.00,CLR,SKC,0.00,WeatherDisplay:10.37,2013-08-29 02:30:00,
2013-08-28 21:35:00,81.0,71.9,29.97,SSW,212,0.0,0.0,74,0.00,CLR,SKC,0.00,WeatherDisplay:10.37,2013-08-29 02:35:00,
2013-08-28 21:40:00,80.9,71.9,29.97,SSW,211,0.0,2.0,74,0.00,CLR,SKC,0.00,WeatherDisplay:10.37,2013-08-29 02:40:00,
2013-08-28 21:45:00,81.0,71.9,29.97,SSW,206,0.0,0.0,74,0.00,CLR,SKC,0.00,WeatherDisplay:10.37,2013-08-29 02:45:00,
2013-08-28 21:50:00,81.1,72.0,29.97,SSW,203,0.0,0.0,74,0.00,CLR,SKC,0.00,WeatherDisplay:10.37,2013-08-29 02:50:00,
2013-08-28 22:00:00,80.8,71.8,29.97,SSW,203,0.0,0.0,74,0.00,CLR,SKC,0.00,WeatherDisplay:10.37,2013-08-29 03:00:00,
2013-08-28 22:05:00,80.5,71.8,29.97,SSW,203,0.0,0.0,75,0.00,CLR,SKC,0.00,WeatherDisplay:10.37,2013-08-29 03:05:00,
2013-08-28 22:10:00,80.2,71.9,29.97,SSW,203,0.0,0.0,76,0.00,CLR,SKC,0.00,WeatherDisplay:10.37,2013-08-29 03:10:00,
2013-08-28 22:20:00,79.7,71.9,29.97,SSW,203,0.0,0.0,77,0.00,CLR,SKC,0.00,WeatherDisplay:10.37,2013-08-29 03:20:00,
2013-08-28 22:25:00,79.6,71.8,29.97,SSW,203,0.0,0.0,77,0.00,CLR,SKC,0.00,WeatherDisplay:10.37,2013-08-29 03:25:00,
2013-08-28 22:30:00,79.7,71.9,29.97,SSW,203,0.0,0.0,77,0.00,CLR,SKC,0.00,WeatherDisplay:10.37,2013-08-29 03:30:00,
2013-08-28 22:35:00,79.7,71.9,29.97,SSW,203,0.0,0.0,77,0.00,CLR,SKC,0.00,WeatherDisplay:10.37,2013-08-29 03:35:00,
2013-08-28 22:40:00,79.5,71.7,29.97,SSW,203,0.0,0.0,77,0.00,CLR,SKC,0.00,WeatherDisplay:10.37,2013-08-29 03:40:00,
2013-08-28 22:45:00,79.4,71.9,29.97,SSW,203,0.0,0.0,78,0.00,CLR,SKC,0.00,WeatherDisplay:10.37,2013-08-29 03:45:00,
2013-08-28 22:50:00,79.3,71.9,29.97,SSW,203,0.0,0.0,78,0.00,CLR,SKC,0.00,WeatherDisplay:10.37,2013-08-29 03:50:00,
2013-08-28 22:55:00,79.3,71.9,29.97,SSW,203,0.0,0.0,78,0.00,CLR,SKC,0.00,WeatherDisplay:10.37,2013-08-29 03:55:00,
2013-08-28 23:00:00,79.1,71.7,29.97,SSW,203,0.0,0.0,78,0.00,CLR,SKC,0.00,WeatherDisplay:10.37,2013-08-29 04:00:00,
2013-08-28 23:05:00,78.8,71.3,29.97,SSW,203,0.0,0.0,78,0.00,CLR,SKC,0.00,WeatherDisplay:10.37,2013-08-29 04:05:00,
2013-08-28 23:10:00,78.5,71.4,29.97,SSW,203,0.0,0.0,79,0.00,CLR,SKC,0.00,WeatherDisplay:10.37,2013-08-29 04:10:00,
2013-08-28 23:15:00,78.3,71.6,29.97,SSW,203,0.0,0.0,80,0.00,CLR,SKC,0.00,WeatherDisplay:10.37,2013-08-29 04:15:00,
2013-08-28 23:20:00,78.2,71.5,29.97,SSW,203,0.0,0.0,80,0.00,CLR,SKC,0.00,WeatherDisplay:10.37,2013-08-29 04:20:00,
2013-08-28 23:25:00,78.1,71.4,29.97,SSW,203,0.0,0.0,80,0.00,CLR,SKC,0.00,WeatherDisplay:10.37,2013-08-29 04:25:00,
2013-08-28 23:30:00,78.0,71.4,29.97,SSW,203,0.0,0.0,80,0.00,CLR,SKC,0.00,WeatherDisplay:10.37,2013-08-29 04:30:00,
2013-08-28 23:35:00,78.1,71.4,29.97,SSW,203,0.0,0.0,80,0.00,CLR,SKC,0.00,WeatherDisplay:10.37,2013-08-29 04:35:00,
2013-08-28 23:40:00,78.1,71.4,29.97,SSW,203,0.0,0.0,80,0.00,CLR,SKC,0.00,WeatherDisplay:10.37,2013-08-29 04:40:00,
2013-08-28 23:45:00,78.0,71.3,29.97,SSW,203,0.0,0.0,80,0.00,CLR,SKC,0.00,WeatherDisplay:10.37,2013-08-29 04:45:00,
2013-08-28 23:50:00,77.9,71.2,29.97,SSW,203,0.0,0.0,80,0.00,CLR,SKC,0.00,WeatherDisplay:10.37,2013-08-29 04:50:00,
2013-08-28 23:55:00,77.7,71.4,29.97,SSW,203,0.0,0.0,81,0.00,CLR,SKC,0.00,WeatherDisplay:10.37,2013-08-29 04:55:00,